Aeroporto :
LOGIN :

Iscrizione | Disclaimer

   EN    FR    IT 

 










Sommario :    VFR   VFR Marginale   IFR   IFR Intensivo   IFR Molto Intensivo
Visibilità : 
Base nubi : 
>= 8 km
>= 3000ft
5 / 8 km
1000 / 3000 ft
1500m / 5 km
500 / 1000 ft
800 / 1500m
200 / 500 ft
< 800m
< 200 ft
Simboli :   Temporali  Nebbia  Neve Forte  Precipitazioni Forti  Vento > 20 kt
SIGMETs :   Varie  Temporali  Ghiacco  Turbolenza  Onda orograficha  Ceneri Vulcaniche







- Altitudine del aeroporto : 81 ft
- Codice IATA : SCS
- Carte del aeroporto


EGPM - Scatsta

ULTIMO METAR :
  • 191650Z AUTO 18011KT 9999 SCT021/// 17/12 Q1005

METARs OBSOLETI :
  • 191620Z AUTO 16013KT 9999 FEW023/// 17/12 Q1005
  • 191550Z AUTO 16014KT 9999 FEW025/// 17/12 Q1005
  • 191520Z 16014KT 9999 FEW025 17/12 Q1005
  • 191450Z 17012KT 9999 FEW025 17/11 Q1005 NOSIG
  • 191420Z 17010KT 140V210 9999 FEW025 18/13 Q1005

TAF TAF EGPM
Valido dal 19 a 15 ore il 19 a 20 ore UTC


191400Z 1915/1920 19009KT 9999 FEW022
Nessun NOTAM noto per questo aeroporto.



MetMap, La meteo Aeronautica in un colpo d'occhio ! - Copyright ORBIFLY Dicembre 2007 - Disclaimer

ORBIFLY MET'MAP TEAM :

Programmazione e sviluppo : Alexandra Zaïnal
Concezione e sviluppo : Baudouin d'Aumeries
Co-Programmazione e sviluppo : Marc-Olivier Méhu
Supporto tecnico e logistico : Manuel Goepfert
Aiuto per la traduzione : Arnaldo La Scala

Contatto : metmap@orbifly.com




FONTI E CREDITI :

   NOAA